Time,TemperatureF,DewpointF,PressureIn,WindDirection,WindDirectionDegrees,WindSpeedMPH,WindSpeedGustMPH,Humidity,HourlyPrecipIn,Conditions,Clouds,dailyrainin,SolarRadiationWatts/m^2,SoftwareType,DateUTC
2013-11-03 00:03:00,30.0,24.0,-100.00,WSW,254,8.0,20.0,78,0.00,,,0.14,0.000000,,2013-11-03 06:03:00,
2013-11-03 00:43:00,27.0,25.0,-100.00,WSW,243,6.0,29.0,92,0.00,,,0.14,0.000000,,2013-11-03 06:43:00,
2013-11-03 00:53:00,27.0,25.0,-100.00,WSW,243,6.0,29.0,92,0.00,,,0.14,0.000000,,2013-11-03 06:53:00,
2013-11-03 01:01:00,27.0,25.0,-100.00,WSW,243,6.0,29.0,92,0.00,,,0.14,0.000000,,2013-11-03 07:01:00,
2013-11-03 01:42:00,28.0,19.0,-100.00,WSW,242,7.0,22.0,68,0.00,,,0.14,0.000000,,2013-11-03 07:42:00,
2013-11-03 01:52:00,28.0,19.0,-100.00,WSW,242,7.0,22.0,68,0.00,,,0.14,0.000000,,2013-11-03 07:52:00,
2013-11-03 01:01:00,28.0,19.0,-100.00,WSW,242,7.0,22.0,68,0.00,,,0.14,0.000000,,2013-11-03 08:01:00,
2013-11-03 01:42:00,29.0,18.0,-100.00,SW,229,5.0,16.0,63,0.00,,,0.14,0.000000,,2013-11-03 08:42:00,
2013-11-03 01:52:00,29.0,18.0,-100.00,SW,229,5.0,16.0,63,0.00,,,0.14,0.000000,,2013-11-03 08:52:00,
2013-11-03 02:02:00,29.0,18.0,-100.00,SW,229,5.0,16.0,63,0.00,,,0.14,0.000000,,2013-11-03 09:02:00,
2013-11-03 02:42:00,28.0,15.0,-100.00,WSW,247,4.0,21.0,58,0.00,,,0.14,0.000000,,2013-11-03 09:42:00,
2013-11-03 02:53:00,28.0,15.0,-100.00,WSW,247,4.0,21.0,58,0.00,,,0.14,0.000000,,2013-11-03 09:53:00,
2013-11-03 03:03:00,28.0,15.0,-100.00,WSW,247,4.0,21.0,58,0.00,,,0.14,0.000000,,2013-11-03 10:03:00,
2013-11-03 03:42:00,27.0,14.0,-100.00,WSW,249,6.0,16.0,57,0.00,,,0.14,0.000000,,2013-11-03 10:42:00,
2013-11-03 03:53:00,27.0,14.0,-100.00,WSW,249,6.0,16.0,57,0.00,,,0.14,0.000000,,2013-11-03 10:53:00,
2013-11-03 04:02:00,27.0,14.0,-100.00,WSW,249,6.0,16.0,57,0.00,,,0.14,0.000000,,2013-11-03 11:02:00,
2013-11-03 04:43:00,25.0,13.0,-100.00,West,276,9.0,21.0,61,0.00,,,0.14,0.000000,,2013-11-03 11:43:00,
2013-11-03 04:52:00,25.0,13.0,-100.00,West,276,9.0,21.0,61,0.00,,,0.14,0.000000,,2013-11-03 11:52:00,
2013-11-03 05:01:00,25.0,13.0,-100.00,West,276,9.0,21.0,61,0.00,,,0.14,0.000000,,2013-11-03 12:01:00,
2013-11-03 05:42:00,25.0,17.0,-100.00,WSW,243,6.0,18.0,70,0.00,,,0.14,0.000000,,2013-11-03 12:42:00,
2013-11-03 05:52:00,25.0,17.0,-100.00,WSW,243,6.0,18.0,70,0.00,,,0.14,0.000000,,2013-11-03 12:52:00,
2013-11-03 06:02:00,25.0,17.0,-100.00,WSW,243,6.0,18.0,70,0.00,,,0.14,0.000000,,2013-11-03 13:02:00,
2013-11-03 06:42:00,24.0,20.0,-100.00,SW,216,3.0,21.0,83,0.00,,,0.14,0.000000,,2013-11-03 13:42:00,
2013-11-03 06:52:00,24.0,20.0,-100.00,SW,216,3.0,21.0,83,0.00,,,0.14,0.000000,,2013-11-03 13:52:00,
2013-11-03 07:02:00,24.0,20.0,-100.00,SW,216,3.0,21.0,83,0.00,,,0.14,0.000000,,2013-11-03 14:02:00,
2013-11-03 07:42:00,25.0,17.0,-100.00,South,169,6.0,11.0,72,0.00,,,0.14,0.000000,,2013-11-03 14:42:00,
2013-11-03 07:52:00,25.0,17.0,-100.00,South,169,6.0,11.0,72,0.00,,,0.14,0.000000,,2013-11-03 14:52:00,
2013-11-03 08:02:00,25.0,17.0,-100.00,South,169,6.0,11.0,72,0.00,,,0.14,0.000000,,2013-11-03 15:02:00,
2013-11-03 08:43:00,27.0,17.0,-100.00,SW,236,7.0,19.0,65,0.00,,,0.14,38.000000,,2013-11-03 15:43:00,
2013-11-03 08:53:00,27.0,17.0,-100.00,SW,236,7.0,19.0,65,0.00,,,0.14,38.000000,,2013-11-03 15:53:00,
2013-11-03 09:03:00,27.0,17.0,-100.00,SW,236,7.0,19.0,65,0.00,,,0.14,38.000000,,2013-11-03 16:03:00,
2013-11-03 09:43:00,28.0,14.0,-100.00,SE,134,5.0,17.0,56,0.00,,,0.14,147.000000,,2013-11-03 16:43:00,
2013-11-03 09:53:00,28.0,14.0,-100.00,SE,134,5.0,17.0,56,0.00,,,0.14,147.000000,,2013-11-03 16:53:00,
2013-11-03 10:03:00,28.0,14.0,-100.00,SE,134,5.0,17.0,56,0.00,,,0.14,147.000000,,2013-11-03 17:03:00,
2013-11-03 10:44:00,30.0,22.0,-100.00,ENE,71,3.0,10.0,72,0.00,,,0.14,201.000000,,2013-11-03 17:44:00,
2013-11-03 10:53:00,30.0,22.0,-100.00,ENE,71,3.0,10.0,72,0.00,,,0.14,201.000000,,2013-11-03 17:53:00,
2013-11-03 11:02:00,30.0,22.0,-100.00,ENE,71,3.0,10.0,72,0.00,,,0.14,201.000000,,2013-11-03 18:02:00,
2013-11-03 11:42:00,31.0,21.0,-100.00,West,272,8.0,15.0,65,0.05,,,0.19,365.000000,,2013-11-03 18:42:00,
2013-11-03 11:52:00,31.0,21.0,-100.00,West,272,8.0,15.0,65,0.05,,,0.19,365.000000,,2013-11-03 18:52:00,
2013-11-03 12:01:00,31.0,21.0,-100.00,West,272,8.0,15.0,65,0.05,,,0.19,365.000000,,2013-11-03 19:01:00,
2013-11-03 12:42:00,31.0,21.0,-100.00,West,259,7.0,18.0,65,0.01,,,0.20,304.000000,,2013-11-03 19:42:00,
2013-11-03 12:53:00,31.0,21.0,-100.00,West,259,7.0,18.0,65,0.01,,,0.20,304.000000,,2013-11-03 19:53:00,
2013-11-03 13:01:00,31.0,21.0,-100.00,West,259,7.0,18.0,65,0.01,,,0.20,304.000000,,2013-11-03 20:01:00,
2013-11-03 13:42:00,29.0,20.0,-100.00,West,275,9.0,20.0,69,0.00,,,0.20,348.000000,,2013-11-03 20:42:00,
2013-11-03 13:52:00,29.0,20.0,-100.00,West,275,9.0,20.0,69,0.00,,,0.20,348.000000,,2013-11-03 20:52:00,
2013-11-03 14:02:00,29.0,20.0,-100.00,West,275,9.0,20.0,69,0.00,,,0.20,348.000000,,2013-11-03 21:02:00,
2013-11-03 14:43:00,29.0,22.0,-100.00,West,264,7.0,14.0,76,0.00,,,0.19,211.000000,,2013-11-03 21:43:00,
2013-11-03 14:54:00,29.0,22.0,-100.00,West,264,7.0,14.0,76,0.00,,,0.19,211.000000,,2013-11-03 21:54:00,
2013-11-03 15:03:00,29.0,22.0,-100.00,West,264,7.0,14.0,76,0.00,,,0.19,211.000000,,2013-11-03 22:03:00,
2013-11-03 15:43:00,27.0,17.0,-100.00,West,270,11.0,19.0,65,0.00,,,0.12,154.000000,,2013-11-03 22:43:00,
2013-11-03 15:52:00,27.0,17.0,-100.00,West,270,11.0,19.0,65,0.00,,,0.12,154.000000,,2013-11-03 22:52:00,
2013-11-03 16:02:00,27.0,17.0,-100.00,West,270,11.0,19.0,65,0.00,,,0.12,154.000000,,2013-11-03 23:02:00,
2013-11-03 16:42:00,28.0,24.0,-100.00,WSW,237,3.0,11.0,86,0.00,,,0.07,102.000000,,2013-11-03 23:42:00,
2013-11-03 16:53:00,28.0,24.0,-100.00,WSW,237,3.0,11.0,86,0.00,,,0.07,102.000000,,2013-11-03 23:53:00,
2013-11-03 17:01:00,28.0,24.0,-100.00,WSW,237,3.0,11.0,86,0.00,,,0.07,102.000000,,2013-11-04 00:01:00,
2013-11-03 17:42:00,27.0,22.0,-100.00,SSE,159,4.0,13.0,80,0.00,,,0.06,53.000000,,2013-11-04 00:42:00,
2013-11-03 17:52:00,27.0,22.0,-100.00,SSE,159,4.0,13.0,80,0.00,,,0.06,53.000000,,2013-11-04 00:52:00,
2013-11-03 18:02:00,27.0,22.0,-100.00,SSE,159,4.0,13.0,80,0.00,,,0.06,53.000000,,2013-11-04 01:02:00,
2013-11-03 18:42:00,26.0,21.0,-100.00,ENE,70,3.0,12.0,82,0.00,,,0.06,2.000000,,2013-11-04 01:42:00,
2013-11-03 18:52:00,26.0,21.0,-100.00,ENE,70,3.0,12.0,82,0.00,,,0.06,2.000000,,2013-11-04 01:52:00,
2013-11-03 19:02:00,26.0,21.0,-100.00,ENE,70,3.0,12.0,82,0.00,,,0.06,2.000000,,2013-11-04 02:02:00,
2013-11-03 19:42:00,26.0,21.0,-100.00,East,85,3.0,12.0,80,0.00,,,0.06,0.000000,,2013-11-04 02:42:00,
2013-11-03 19:52:00,26.0,21.0,-100.00,East,85,3.0,12.0,80,0.00,,,0.06,0.000000,,2013-11-04 02:52:00,
2013-11-03 20:02:00,26.0,21.0,-100.00,East,85,3.0,12.0,80,0.00,,,0.06,0.000000,,2013-11-04 03:02:00,
2013-11-03 20:44:00,25.0,24.0,-100.00,West,269,7.0,14.0,95,0.00,,,0.06,0.000000,,2013-11-04 03:44:00,
2013-11-03 20:54:00,25.0,24.0,-100.00,West,269,7.0,14.0,95,0.00,,,0.06,0.000000,,2013-11-04 03:54:00,
2013-11-03 21:04:00,25.0,24.0,-100.00,West,269,7.0,14.0,95,0.00,,,0.06,0.000000,,2013-11-04 04:04:00,
2013-11-03 21:43:00,24.0,23.0,-100.00,NNE,19,2.0,14.0,95,0.00,,,0.06,0.000000,,2013-11-04 04:43:00,
2013-11-03 21:52:00,24.0,23.0,-100.00,NNE,19,2.0,14.0,95,0.00,,,0.06,0.000000,,2013-11-04 04:52:00,
2013-11-03 22:03:00,24.0,23.0,-100.00,NNE,19,2.0,14.0,95,0.00,,,0.06,0.000000,,2013-11-04 05:03:00,
2013-11-03 22:44:00,23.0,22.0,-100.00,SW,233,2.0,12.0,94,0.00,,,0.06,0.000000,,2013-11-04 05:44:00,
2013-11-03 22:53:00,23.0,22.0,-100.00,SW,233,2.0,12.0,94,0.00,,,0.06,0.000000,,2013-11-04 05:53:00,
2013-11-03 23:01:00,23.0,22.0,-100.00,SW,233,2.0,12.0,94,0.00,,,0.06,0.000000,,2013-11-04 06:01:00,
2013-11-03 23:42:00,23.0,22.0,-100.00,South,176,3.0,7.0,94,0.00,,,0.06,0.000000,,2013-11-04 06:42:00,
2013-11-03 23:52:00,23.0,22.0,-100.00,South,176,3.0,7.0,94,0.00,,,0.06,0.000000,,2013-11-04 06:52:00,